1930 NOT_NAMED (1930031N12131)


IBTrACS version v04r00. Visit IBTrACS website for data access.
Please direct all questions to the IBTrACS Q and A forum

Storm track - Intensity - Wind Radii - Intensity Data - Source Data - All data

Summary Information

Storm ID 1930031N12131
Start Jan 30 22Z
End Feb 1 22Z
ATCF IDs
Track status Best track data.

Storm track plot

Map of storm track

Intensity plots

No Intensity information for this storm


Radial wind information

No radial wind information for this storm


Position and Intensity Table

BASIN ISO_TIME_________ NATURE LAT LON
degrees north degrees east
WP 1930-01-30 22:00:00 NR 12.00 131.00
WP 1930-01-31 00:00:00 NR 12.31 130.78
WP 03:00:00 NR 12.76 130.44
WP 06:00:00 NR 13.18 130.06
WP 09:00:00 NR 13.58 129.65
WP 10:00:00 NR 13.70 129.50
WP 12:00:00 NR 13.93 129.18
WP 15:00:00 NR 14.30 128.73
WP 18:00:00 NR 14.79 128.38
WP 21:00:00 NR 15.50 128.27
WP 22:00:00 NR 15.80 128.30
WP 1930-02-01 00:00:00 NR 16.61 128.46
WP 03:00:00 NR 18.05 128.94
WP 06:00:00 NR 19.62 129.68
WP 09:00:00 NR 21.14 130.64
WP 10:00:00 NR 21.60 131.00
WP 12:00:00 NR 22.44 131.77
WP 15:00:00 NR 23.49 133.03
WP 18:00:00 NR 24.38 134.39
WP 21:00:00 NR 25.15 135.82
WP 22:00:00 NR 25.40 136.30

Source Information

Agency Information
USA
TOKYO
CMA
HKO
NEWDELHI
REUNION
BOM
NADI
WELLINGTON
DS824
TD9636 cons_worldwide_trop_cyclone_18710101-19891231-003:Line=8472
TD9635
NEUMANN
MLC

All available IBTrACS Data

SEASON BASIN SUBBASIN ISO_TIME_________ NATURE LAT LON DIST2LAND LANDFALL IFLAG USA SSHS TD9636 LAT TD9636 LON TD9636 STAGE STORM SPEED STORM DIR
Year degrees north degrees east km km 1 degrees north degrees east kts degrees
1930 WP MM 1930-01-30 22:00:00 NR 12.00 131.00 577 561 __________O___ -1 12.00 131.00 7 11 325
1930 WP MM 1930-01-31 00:00:00 NR 12.31 130.78 564 536 __________P___ -1 12.31 130.78 7 11 324
1930 WP MM 03:00:00 NR 12.76 130.44 536 509 __________P___ -1 12.76 130.44 7 11 322
1930 WP MM 06:00:00 NR 13.18 130.06 511 478 __________P___ -1 13.18 130.06 7 11 317
1930 WP MM 09:00:00 NR 13.58 129.65 481 465 __________P___ -1 13.58 129.65 7 11 313
1930 WP MM 10:00:00 NR 13.70 129.50 465 443 __________O___ -1 13.70 129.50 7 12 308
1930 WP MM 12:00:00 NR 13.93 129.18 443 418 __________P___ -1 13.93 129.18 7 12 309
1930 WP MM 15:00:00 NR 14.30 128.73 418 414 __________P___ -1 14.30 128.73 7 12 318
1930 WP MM 18:00:00 NR 14.79 128.38 427 427 __________P___ -1 14.79 128.38 7 13 340
1930 WP MM 21:00:00 NR 15.50 128.27 456 456 __________P___ -1 15.50 128.27 7 15 355
1930 WP MM 22:00:00 NR 15.80 128.30 470 470 __________O___ -1 15.80 128.30 7 23 9
1930 WP MM 1930-02-01 00:00:00 NR 16.61 128.46 533 540 __________P___ -1 16.61 128.46 7 28 15
1930 WP MM 03:00:00 NR 18.05 128.94 672 680 __________P___ -1 18.05 128.94 7 33 21
1930 WP MM 06:00:00 NR 19.62 129.68 789 791 __________P___ -1 19.62 129.68 7 35 27
1930 WP MM 09:00:00 NR 21.14 130.64 919 932 __________P___ -1 21.14 130.64 7 35 32
1930 WP MM 10:00:00 NR 21.60 131.00 976 965 __________O___ -1 21.60 131.00 7 34 39
1930 WP MM 12:00:00 NR 22.44 131.77 966 867 __________P___ -1 22.44 131.77 7 32 45
1930 WP MM 15:00:00 NR 23.49 133.03 867 821 __________P___ -1 23.49 133.03 7 31 51
1930 WP MM 18:00:00 NR 24.38 134.39 821 814 __________P___ -1 24.38 134.39 7 30 57
1930 WP MM 21:00:00 NR 25.15 135.82 814 817 __________P___ -1 25.15 135.82 7 30 59
1930 WP MM 22:00:00 NR 25.40 136.30 823 __________O___ -1 25.40 136.30 3 30 60